East Camden, New Jersey
Current Conditions -  °F | °C
As of 10:54 AM on Friday 24 Oct 2014 (Local Time) from KPHL Reporting Station
Scattered Clouds Scattered Clouds  
Wind Chill: 62°   Ceiling: Unl
Heat Index: 62°   Visibility: 10mi
Dew Point: 44°   Wind: 12mph
Humidity: 52%   Direction: 320°NW
Pressure: 29.88"   Gusts: NA
Location:  39.9508°N, 75.0881°W
Report Text: KPHL 241454Z 32010KT 10SM SCT042 SCT070 SCT180 17/07 A2988 RMK AO2 PK WND 34030/1359 SLP118 T01670067 50009
Loading
Personal Weather Stations






























Interactive Weather Map
Tropical Storm Tracking
New forecast layout! Learn more

10-Day Weather Forecast

Advertisements
Track Severe Weather on mobile